SVRA weather

Río de Agua Airport
Sucre, Venezuela

Public forecast

Using degrees Celsius for public forecast. Weather courtesy of forecast.io.

METAR (pilot weather report)

Report is more than 6 hours old.

Closest report is General Francisco Bermúdez Airport, 16.8 nm (31.0 km) WNW. Retrieved 2017/11/23 16:00 UTC (1 year ago):

SVCP 231600Z NI

TAF (pilot weather forecast)

Forecast is more than 6 hours old.

Closest forecast is Del Caribe Santiago Mariño International Airport, 61.0 nm (113.0 km) WNW. Retrieved 2019/03/26 00:55 UTC (9 hours ago):

TAF SVMG 252200Z 2600/2700 08013KT 9999 FEW016 TX27/2612Z TN24/2603Z BECMG 2600/2604 08013KT CAVOK